Time;durP1;ratioP1;P1;durP2;ratioP2;P2;SDS_P1;SDS_P2;PMS_P1;PMS_P2;Temp;Humidity;BMP_temperature;BMP_pressure;BME280_temperature;BME280_humidity;BME280_pressure;Samples;Min_cycle;Max_cycle;Signal;HPM_P1;HPM_P2
2023/09/29 00:00:17;;;;;;;0.70;0.70;;;18.70;99.90;;;;;;7397156;19;20171;-90
2023/09/29 00:02:44;;;;;;;1.45;1.10;;;18.70;99.90;;;;;;7401864;19;20467;-91
2023/09/29 00:05:18;;;;;;;1.15;0.85;;;18.90;99.90;;;;;;7400677;19;20142;-91
2023/09/29 00:07:44;;;;;;;1.27;1.00;;;18.90;99.90;;;;;;7400573;19;20138;-93
2023/09/29 00:10:16;;;;;;;2.40;1.30;;;18.90;99.90;;;;;;7402277;19;20140;-91
2023/09/29 00:12:43;;;;;;;1.65;1.08;;;19.00;99.90;;;;;;7399471;19;20131;-92
2023/09/29 00:15:21;;;;;;;1.52;1.20;;;19.00;99.90;;;;;;7399599;19;20146;-92
2023/09/29 00:17:47;;;;;;;1.75;1.00;;;19.00;99.90;;;;;;7399512;19;20160;-92
2023/09/29 00:20:19;;;;;;;1.60;1.23;;;18.70;99.90;;;;;;7397604;19;20130;-92
2023/09/29 00:22:46;;;;;;;1.70;0.93;;;18.60;99.90;;;;;;7395651;19;20166;-92
2023/09/29 00:25:12;;;;;;;1.33;0.90;;;18.60;99.90;;;;;;7394313;19;20135;-92
2023/09/29 00:27:38;;;;;;;1.92;1.13;;;18.80;99.90;;;;;;7396392;19;20169;-91
2023/09/29 00:30:05;;;;;;;1.55;1.20;;;18.90;99.90;;;;;;7394849;19;20142;-91
2023/09/29 00:32:31;;;;;;;1.60;1.10;;;19.00;99.90;;;;;;7393610;19;20237;-91
2023/09/29 00:34:58;;;;;;;1.98;1.13;;;19.00;99.90;;;;;;7395036;19;20171;-91
2023/09/29 00:37:25;;;;;;;1.48;0.90;;;18.90;99.90;;;;;;7396443;19;20150;-90
2023/09/29 00:39:52;;;;;;;1.52;1.10;;;18.70;99.90;;;;;;7393242;19;20151;-92
2023/09/29 00:42:18;;;;;;;1.40;1.00;;;18.50;99.90;;;;;;7395154;19;20623;-93
2023/09/29 00:44:45;;;;;;;1.15;0.90;;;18.40;99.90;;;;;;7393325;19;20138;-93
2023/09/29 00:47:11;;;;;;;1.08;0.75;;;18.40;99.90;;;;;;7394098;19;20156;-91
2023/09/29 00:49:38;;;;;;;1.67;1.17;;;18.20;99.90;;;;;;7393887;19;20154;-91
2023/09/29 00:52:04;;;;;;;1.15;0.93;;;18.30;99.90;;;;;;7389851;19;20218;-91
2023/09/29 00:54:34;;;;;;;2.00;1.20;;;18.30;99.90;;;;;;7394371;19;20482;-90
2023/09/29 00:57:05;;;;;;;1.50;1.10;;;18.40;99.90;;;;;;7392987;19;20142;-90
2023/09/29 00:59:32;;;;;;;1.40;0.95;;;18.20;99.90;;;;;;7394197;19;20139;-89
2023/09/29 01:02:00;;;;;;;1.40;1.00;;;18.00;99.90;;;;;;7400342;19;20499;-92
2023/09/29 01:04:25;;;;;;;1.15;1.05;;;17.90;99.90;;;;;;7399856;19;20209;-90
2023/09/29 01:06:52;;;;;;;1.10;0.98;;;17.80;99.90;;;;;;7400504;19;20139;-90
2023/09/29 01:09:18;;;;;;;1.02;0.88;;;17.90;99.90;;;;;;7399962;19;20595;-91
2023/09/29 01:11:44;;;;;;;1.58;1.00;;;18.00;99.90;;;;;;7398851;19;20174;-91
2023/09/29 01:14:11;;;;;;;1.40;0.93;;;18.20;99.90;;;;;;7399420;19;20150;-91
2023/09/29 01:16:41;;;;;;;1.02;0.90;;;18.30;99.90;;;;;;7398898;19;20162;-91
2023/09/29 01:19:14;;;;;;;1.20;0.68;;;18.10;99.90;;;;;;7399982;19;20222;-92
2023/09/29 01:21:44;;;;;;;1.50;1.13;;;18.10;99.90;;;;;;7401021;19;20541;-91
2023/09/29 01:24:10;;;;;;;1.83;1.08;;;18.30;99.90;;;;;;7400043;19;20146;-91
2023/09/29 01:26:36;;;;;;;0.80;0.80;;;18.30;99.90;;;;;;7401031;19;20165;-92
2023/09/29 01:29:03;;;;;;;1.45;1.10;;;18.00;99.90;;;;;;7409273;19;20150;-90
2023/09/29 01:31:33;;;;;;;2.53;1.38;;;18.10;99.90;;;;;;7397771;19;20131;-89
2023/09/29 01:33:59;;;;;;;1.58;1.02;;;18.30;99.90;;;;;;7396872;19;20166;-91
2023/09/29 01:36:25;;;;;;;1.85;1.17;;;18.30;99.90;;;;;;7399386;19;20147;-91
2023/09/29 01:38:50;;;;;;;0.90;0.85;;;17.90;99.90;;;;;;7399364;19;20541;-91
2023/09/29 01:41:16;;;;;;;1.13;0.90;;;17.70;99.90;;;;;;7399087;19;20131;-91
2023/09/29 01:43:42;;;;;;;1.70;1.13;;;17.70;99.90;;;;;;7397782;19;20146;-87
2023/09/29 01:46:09;;;;;;;1.42;1.20;;;17.40;99.90;;;;;;7399436;19;20505;-91
2023/09/29 01:48:35;;;;;;;1.33;1.13;;;17.30;99.90;;;;;;7399827;19;20177;-91
2023/09/29 01:51:07;;;;;;;1.92;1.17;;;17.40;99.90;;;;;;7397892;19;20186;-91
2023/09/29 01:53:32;;;;;;;1.85;1.05;;;17.60;99.90;;;;;;7398440;19;20145;-91
2023/09/29 01:55:59;;;;;;;1.60;0.80;;;17.50;99.90;;;;;;7397410;19;20131;-92
2023/09/29 01:58:26;;;;;;;0.80;0.75;;;17.40;99.90;;;;;;7398410;19;20142;-90
2023/09/29 02:00:53;;;;;;;1.33;1.00;;;17.40;99.90;;;;;;7399090;19;20175;-91
2023/09/29 02:03:19;;;;;;;1.80;1.17;;;17.60;99.90;;;;;;7399345;19;20154;-91
2023/09/29 02:05:45;;;;;;;1.30;1.20;;;17.90;99.90;;;;;;7394181;19;20182;-92
2023/09/29 02:08:11;;;;;;;1.63;1.10;;;17.90;99.90;;;;;;7400242;19;20135;-93
2023/09/29 02:10:38;;;;;;;1.08;0.98;;;17.70;99.90;;;;;;7399730;19;20172;-90
2023/09/29 02:13:05;;;;;;;1.40;1.00;;;17.60;99.90;;;;;;7398064;19;20154;-91
2023/09/29 02:15:35;;;;;;;1.30;1.00;;;17.40;99.90;;;;;;7399422;19;20556;-93
2023/09/29 02:18:04;;;;;;;1.63;0.90;;;17.30;99.90;;;;;;7400816;19;20139;-93
2023/09/29 02:20:31;;;;;;;1.38;1.15;;;17.40;99.90;;;;;;7401381;19;20135;-94
2023/09/29 02:22:58;;;;;;;1.25;0.98;;;17.40;99.90;;;;;;7400015;19;20157;-93
2023/09/29 02:25:25;;;;;;;1.10;0.98;;;17.70;99.90;;;;;;7398839;19;20143;-92
2023/09/29 02:27:59;;;;;;;2.40;1.00;;;17.80;99.90;;;;;;7397174;19;20150;-92
2023/09/29 02:30:25;;;;;;;0.90;0.75;;;17.60;99.90;;;;;;7397492;19;20165;-92
2023/09/29 02:32:55;;;;;;;1.13;1.00;;;17.70;99.90;;;;;;7397924;19;20139;-92
2023/09/29 02:35:21;;;;;;;1.63;0.90;;;17.90;99.90;;;;;;7400659;19;20131;-95
2023/09/29 02:37:52;;;;;;;0.82;0.70;;;18.10;99.90;;;;;;7411342;19;20135;-95
2023/09/29 02:40:18;;;;;;;1.63;1.05;;;18.10;99.90;;;;;;7400330;19;20141;-93
2023/09/29 02:42:47;;;;;;;1.17;0.90;;;18.10;99.90;;;;;;7403053;19;20163;-94
2023/09/29 02:45:13;;;;;;;1.25;1.10;;;17.80;99.90;;;;;;7403548;19;20150;-95
2023/09/29 02:47:39;;;;;;;1.65;1.02;;;17.70;99.90;;;;;;7405656;19;20135;-94
2023/09/29 02:50:10;;;;;;;1.20;0.90;;;17.50;99.90;;;;;;7403334;19;20150;-94
2023/09/29 02:52:40;;;;;;;1.23;1.10;;;17.20;99.90;;;;;;7401852;19;20138;-94
2023/09/29 02:55:16;;;;;;;1.70;0.93;;;17.30;99.90;;;;;;7401132;19;20218;-91
2023/09/29 02:57:44;;;;;;;0.98;0.88;;;17.60;99.90;;;;;;7399036;19;20131;-92
2023/09/29 03:00:15;;;;;;;1.38;0.73;;;17.50;99.90;;;;;;7401157;19;20155;-94
2023/09/29 03:02:41;;;;;;;1.17;1.00;;;17.40;99.90;;;;;;7399394;19;20187;-93
2023/09/29 03:05:09;;;;;;;1.55;1.05;;;17.40;99.90;;;;;;7396144;19;20167;-91
2023/09/29 03:07:36;;;;;;;1.90;0.98;;;17.70;99.90;;;;;;7397608;19;20134;-91
2023/09/29 03:10:05;;;;;;;1.10;1.00;;;17.80;99.90;;;;;;7396036;19;20619;-92
2023/09/29 03:12:31;;;;;;;1.35;1.10;;;17.80;99.90;;;;;;7399032;19;20530;-92
2023/09/29 03:14:57;;;;;;;1.58;1.10;;;17.60;99.90;;;;;;7397163;19;20138;-93
2023/09/29 03:17:23;;;;;;;1.23;1.13;;;17.30;99.90;;;;;;7397467;19;20768;-93
2023/09/29 03:19:49;;;;;;;1.55;1.27;;;17.20;99.90;;;;;;7396432;19;20162;-92
2023/09/29 03:22:14;;;;;;;1.00;0.82;;;17.60;99.90;;;;;;7399198;19;20911;-93
2023/09/29 03:24:42;;;;;;;1.15;0.77;;;17.60;99.90;;;;;;7395878;19;20143;-94
2023/09/29 03:27:07;;;;;;;1.85;1.23;;;17.60;99.90;;;;;;7399193;19;20134;-93
2023/09/29 03:29:35;;;;;;;1.73;1.13;;;17.20;99.90;;;;;;7397589;19;20158;-92
2023/09/29 03:32:01;;;;;;;0.77;0.73;;;17.40;99.90;;;;;;7397801;19;20911;-93
2023/09/29 03:34:27;;;;;;;2.13;0.80;;;17.50;99.90;;;;;;7398089;19;20671;-92
2023/09/29 03:36:53;;;;;;;1.05;0.88;;;17.60;99.90;;;;;;7399146;19;20135;-93
2023/09/29 03:39:19;;;;;;;1.17;0.77;;;17.60;99.90;;;;;;7398533;19;20139;-86
2023/09/29 03:41:45;;;;;;;1.38;0.90;;;17.60;99.90;;;;;;7400212;19;20154;-92
2023/09/29 03:44:12;;;;;;;0.95;0.88;;;17.30;99.90;;;;;;7396281;19;20174;-92
2023/09/29 03:46:38;;;;;;;1.35;0.98;;;17.10;99.90;;;;;;7396925;19;20150;-93
2023/09/29 03:49:05;;;;;;;1.27;1.05;;;17.40;99.90;;;;;;7398280;19;20479;-92
2023/09/29 03:51:30;;;;;;;1.10;0.98;;;17.60;99.90;;;;;;7393034;19;20187;-89
2023/09/29 03:53:57;;;;;;;1.55;1.10;;;17.70;99.90;;;;;;7395954;19;20194;-90
2023/09/29 03:56:23;;;;;;;1.92;1.40;;;17.80;99.90;;;;;;7398200;19;20214;-93
2023/09/29 03:58:50;;;;;;;2.00;1.02;;;17.60;99.90;;;;;;7402300;19;20147;-91
2023/09/29 04:01:17;;;;;;;1.13;1.00;;;17.30;99.90;;;;;;7397703;19;20228;-93
2023/09/29 04:03:42;;;;;;;1.38;1.15;;;17.20;99.90;;;;;;7397719;19;20505;-89
2023/09/29 04:06:11;;;;;;;1.70;1.00;;;17.50;99.90;;;;;;7392430;19;20157;-94
2023/09/29 04:08:38;;;;;;;0.88;0.88;;;17.60;99.90;;;;;;7396257;19;20547;-94
2023/09/29 04:11:04;;;;;;;1.23;1.13;;;17.60;99.90;;;;;;7396268;19;20131;-95
2023/09/29 04:13:30;;;;;;;1.33;0.93;;;17.60;99.90;;;;;;7395672;19;20165;-91
2023/09/29 04:15:58;;;;;;;2.45;0.82;;;17.60;99.90;;;;;;7395486;19;20150;-93
2023/09/29 04:18:24;;;;;;;1.27;1.13;;;17.50;99.90;;;;;;7399053;19;20721;-92
2023/09/29 04:20:50;;;;;;;3.30;1.10;;;17.60;99.90;;;;;;7396695;19;20138;-91
2023/09/29 04:23:16;;;;;;;1.48;1.13;;;17.40;99.90;;;;;;7394984;19;20135;-91
2023/09/29 04:25:43;;;;;;;1.35;0.98;;;17.00;99.90;;;;;;7394051;19;20157;-90
2023/09/29 04:28:09;;;;;;;2.17;1.00;;;17.00;99.90;;;;;;7393525;19;20146;-92
2023/09/29 04:30:34;;;;;;;1.95;1.05;;;17.20;99.90;;;;;;7394483;19;20159;-91
2023/09/29 04:33:00;;;;;;;1.95;1.20;;;17.40;99.90;;;;;;7394689;19;20155;-92
2023/09/29 04:35:26;;;;;;;0.93;0.85;;;17.10;99.90;;;;;;7394025;19;20164;-91
2023/09/29 04:37:52;;;;;;;2.05;0.90;;;16.80;99.90;;;;;;7395946;19;20519;-91
2023/09/29 04:40:18;;;;;;;1.75;1.10;;;16.80;99.90;;;;;;7395541;19;20619;-92
2023/09/29 04:42:44;;;;;;;1.33;1.00;;;17.10;99.90;;;;;;7393294;19;20134;-91
2023/09/29 04:45:09;;;;;;;2.55;1.48;;;17.40;99.90;;;;;;7394754;19;20181;-91
2023/09/29 04:47:35;;;;;;;1.20;0.98;;;17.50;99.90;;;;;;7394629;19;20277;-90
2023/09/29 04:50:01;;;;;;;1.27;1.02;;;17.40;99.90;;;;;;7393660;19;20153;-90
2023/09/29 04:52:27;;;;;;;1.95;1.02;;;17.40;99.90;;;;;;7395452;19;20150;-92
2023/09/29 04:54:53;;;;;;;1.17;0.90;;;17.40;99.90;;;;;;7393241;19;20659;-91
2023/09/29 04:57:19;;;;;;;2.00;1.30;;;17.10;99.90;;;;;;7394993;19;20142;-89
2023/09/29 04:59:45;;;;;;;1.35;1.08;;;17.30;99.90;;;;;;7397111;19;20134;-91
2023/09/29 05:02:11;;;;;;;1.92;1.30;;;17.50;99.90;;;;;;7396023;19;20150;-89
2023/09/29 05:04:37;;;;;;;0.95;0.88;;;17.50;99.90;;;;;;7393367;19;20158;-91
2023/09/29 05:07:03;;;;;;;1.67;1.35;;;17.30;99.90;;;;;;7393012;19;20231;-91
2023/09/29 05:09:28;;;;;;;1.60;1.17;;;17.30;99.90;;;;;;7393013;19;20138;-89
2023/09/29 05:11:54;;;;;;;1.33;1.13;;;17.40;99.90;;;;;;7389194;19;20259;-91
2023/09/29 05:14:20;;;;;;;1.90;1.27;;;17.60;99.90;;;;;;7393384;19;20156;-91
2023/09/29 05:16:47;;;;;;;1.80;1.20;;;17.70;99.90;;;;;;7392643;19;20224;-91
2023/09/29 05:19:13;;;;;;;1.33;0.98;;;17.70;99.90;;;;;;7393378;19;20138;-91
2023/09/29 05:21:39;;;;;;;1.10;1.00;;;17.80;99.90;;;;;;7393122;19;20154;-92
2023/09/29 05:24:05;;;;;;;1.63;1.13;;;17.90;99.90;;;;;;7393884;19;20478;-92
2023/09/29 05:26:31;;;;;;;1.65;1.33;;;17.90;99.90;;;;;;7394538;19;20158;-92
2023/09/29 05:28:59;;;;;;;1.10;1.00;;;18.00;99.90;;;;;;7394964;19;20134;-93
2023/09/29 05:31:46;;;;;;;1.63;1.00;;;17.90;99.90;;;;;;7392435;19;20142;-92
2023/09/29 05:34:12;;;;;;;3.05;1.15;;;17.90;99.90;;;;;;7392868;19;20134;-89
2023/09/29 05:36:37;;;;;;;1.20;1.10;;;18.00;99.90;;;;;;7392314;19;20149;-91
2023/09/29 05:39:04;;;;;;;2.35;1.40;;;18.00;99.90;;;;;;7394716;19;20146;-88
2023/09/29 05:41:31;;;;;;;1.13;1.02;;;17.90;99.90;;;;;;7401055;19;20915;-90
2023/09/29 05:43:56;;;;;;;1.38;1.20;;;18.00;99.90;;;;;;7391531;19;20147;-89
2023/09/29 05:46:22;;;;;;;1.67;1.10;;;18.10;99.90;;;;;;7392494;19;20139;-88
2023/09/29 05:48:48;;;;;;;2.10;1.20;;;18.10;99.90;;;;;;7399734;19;20137;-88
2023/09/29 05:51:14;;;;;;;2.30;1.52;;;18.10;99.90;;;;;;7396206;19;20209;-87
2023/09/29 05:53:39;;;;;;;2.35;1.58;;;18.00;99.90;;;;;;7402635;19;20134;-90
2023/09/29 05:56:08;;;;;;;3.90;1.30;;;18.10;99.90;;;;;;7399331;19;20726;-87
2023/09/29 05:58:35;;;;;;;2.25;1.20;;;18.00;99.90;;;;;;7401100;19;20227;-91
2023/09/29 06:01:13;;;;;;;1.20;1.08;;;18.10;99.90;;;;;;7404902;19;20454;-88
2023/09/29 06:03:40;;;;;;;1.60;1.17;;;18.10;99.90;;;;;;7399559;19;20150;-84
2023/09/29 06:06:09;;;;;;;1.10;1.00;;;18.00;99.90;;;;;;7396493;19;20146;-87
2023/09/29 06:08:36;;;;;;;1.40;1.15;;;17.90;99.90;;;;;;7399060;19;20158;-88
2023/09/29 06:11:05;;;;;;;2.05;1.20;;;17.90;99.90;;;;;;7396993;19;20127;-88
2023/09/29 06:13:32;;;;;;;2.00;1.38;;;17.90;99.90;;;;;;7401810;19;20623;-90
2023/09/29 06:15:58;;;;;;;1.65;1.27;;;18.10;99.90;;;;;;7402855;19;20209;-91
2023/09/29 06:18:25;;;;;;;2.13;1.15;;;17.70;99.90;;;;;;7396626;19;20517;-88
2023/09/29 06:20:51;;;;;;;2.50;1.58;;;17.80;99.90;;;;;;7399717;19;20146;-85
2023/09/29 06:23:16;;;;;;;1.30;1.00;;;17.90;99.90;;;;;;7397917;19;20599;-87
2023/09/29 06:25:42;;;;;;;1.00;0.85;;;18.10;99.90;;;;;;7397432;19;20502;-88
2023/09/29 06:28:08;;;;;;;1.20;1.00;;;18.20;99.90;;;;;;7396361;19;20210;-87
2023/09/29 06:30:34;;;;;;;1.25;0.95;;;18.40;99.90;;;;;;7395813;19;20166;-88
2023/09/29 06:32:59;;;;;;;1.65;1.20;;;18.40;99.90;;;;;;7398130;19;20145;-88
2023/09/29 06:35:25;;;;;;;1.52;1.13;;;18.50;99.90;;;;;;7397499;19;20154;-89
2023/09/29 06:37:51;;;;;;;2.72;1.17;;;18.40;99.90;;;;;;7397622;19;20142;-93
2023/09/29 06:40:17;;;;;;;3.80;1.48;;;18.40;99.90;;;;;;7397691;19;20145;-88
2023/09/29 06:42:43;;;;;;;2.13;1.08;;;18.30;99.90;;;;;;7400951;19;20142;-88
2023/09/29 06:45:09;;;;;;;2.67;1.27;;;18.40;99.90;;;;;;7396747;19;20135;-84
2023/09/29 06:47:35;;;;;;;2.90;1.48;;;18.40;99.90;;;;;;7398232;19;20139;-88
2023/09/29 06:50:01;;;;;;;1.85;1.45;;;18.50;99.90;;;;;;7396763;19;20508;-85
2023/09/29 06:52:27;;;;;;;2.20;1.20;;;18.50;99.90;;;;;;7394196;19;20157;-86
2023/09/29 06:54:53;;;;;;;1.85;1.35;;;18.40;99.90;;;;;;7396876;19;20135;-85
2023/09/29 06:57:20;;;;;;;1.70;1.08;;;18.50;99.90;;;;;;7397478;19;20139;-86
2023/09/29 06:59:46;;;;;;;2.17;1.27;;;18.60;99.90;;;;;;7395536;19;20151;-86
2023/09/29 07:02:12;;;;;;;1.63;1.50;;;18.60;99.90;;;;;;7396844;19;20142;-85
2023/09/29 07:04:38;;;;;;;2.03;1.50;;;18.60;99.90;;;;;;7395880;19;20161;-88
2023/09/29 07:07:04;;;;;;;1.90;1.40;;;18.60;99.90;;;;;;7395741;19;20138;-89
2023/09/29 07:09:30;;;;;;;1.83;1.23;;;18.60;99.90;;;;;;7397611;19;20167;-88
2023/09/29 07:11:56;;;;;;;3.80;1.30;;;18.70;99.90;;;;;;7392444;19;20487;-87
2023/09/29 07:14:22;;;;;;;1.95;1.52;;;18.90;99.90;;;;;;7401860;19;20135;-90
2023/09/29 07:16:52;;;;;;;1.33;1.23;;;18.80;99.90;;;;;;7397674;19;20154;-92
2023/09/29 07:19:18;;;;;;;1.08;0.98;;;18.80;99.90;;;;;;7415474;19;20150;-95
2023/09/29 07:21:53;;;;;;;2.20;1.85;;;19.00;99.90;;;;;;7403020;19;20170;-92
2023/09/29 07:24:19;;;;;;;1.63;1.35;;;19.10;99.90;;;;;;7416142;19;20130;-93
2023/09/29 07:26:57;;;;;;;2.55;1.42;;;19.10;99.90;;;;;;7412891;19;20162;-93
2023/09/29 07:29:27;;;;;;;1.95;1.35;;;19.30;99.90;;;;;;7405089;19;20492;-89
2023/09/29 07:31:54;;;;;;;1.33;1.20;;;19.50;99.90;;;;;;7402708;19;20168;-92
2023/09/29 07:34:27;;;;;;;1.25;1.10;;;19.60;99.90;;;;;;7413621;19;20139;-94
2023/09/29 07:36:57;;;;;;;1.42;0.90;;;19.50;99.90;;;;;;7417066;19;20154;-93
2023/09/29 07:39:27;;;;;;;1.92;1.23;;;19.50;99.90;;;;;;7413587;19;20233;-92
2023/09/29 07:41:53;;;;;;;2.05;1.23;;;19.60;99.90;;;;;;7407586;19;20139;-93
2023/09/29 07:44:19;;;;;;;1.40;1.23;;;19.60;99.90;;;;;;7407272;19;20147;-91
2023/09/29 07:46:46;;;;;;;1.60;0.95;;;19.50;99.90;;;;;;7404498;19;20158;-90
2023/09/29 07:49:14;;;;;;;1.40;1.10;;;19.40;99.90;;;;;;7407605;19;20147;-92
2023/09/29 07:51:41;;;;;;;1.85;1.17;;;19.50;99.90;;;;;;7408077;19;20135;-92
2023/09/29 07:54:06;;;;;;;3.53;1.30;;;19.60;99.90;;;;;;7406395;19;20131;-90
2023/09/29 07:56:32;;;;;;;1.27;0.98;;;19.60;99.90;;;;;;7398129;19;20177;-90
2023/09/29 07:58:58;;;;;;;1.52;1.10;;;19.50;99.90;;;;;;7398544;19;20564;-88
2023/09/29 08:01:24;;;;;;;1.55;1.15;;;19.70;99.90;;;;;;7397322;19;20151;-89
2023/09/29 08:03:50;;;;;;;2.00;1.40;;;19.70;99.90;;;;;;7396560;19;20147;-90
2023/09/29 08:06:17;;;;;;;1.65;1.38;;;19.80;99.90;;;;;;7393629;19;20185;-86
2023/09/29 08:08:43;;;;;;;1.73;1.30;;;19.90;99.90;;;;;;7397244;19;20162;-90
2023/09/29 08:11:09;;;;;;;1.20;0.88;;;20.00;99.90;;;;;;7399168;19;20154;-94
2023/09/29 08:13:34;;;;;;;1.67;1.05;;;20.10;99.90;;;;;;7398051;19;20185;-89
2023/09/29 08:16:00;;;;;;;2.25;1.27;;;20.20;99.90;;;;;;7403767;19;20448;-94
2023/09/29 08:18:28;;;;;;;2.53;1.05;;;20.20;99.90;;;;;;7395804;19;20153;-90
2023/09/29 08:20:54;;;;;;;1.50;1.20;;;20.30;99.90;;;;;;7395972;19;20261;-86
2023/09/29 08:23:20;;;;;;;1.67;1.00;;;20.30;99.90;;;;;;7395770;19;20177;-89
2023/09/29 08:25:46;;;;;;;1.60;1.45;;;20.20;99.90;;;;;;7395139;19;20182;-87
2023/09/29 08:28:13;;;;;;;3.45;1.48;;;20.30;99.90;;;;;;7393941;19;20159;-89
2023/09/29 08:30:42;;;;;;;1.65;1.33;;;20.40;99.90;;;;;;7394219;19;20154;-87
2023/09/29 08:33:08;;;;;;;2.13;1.27;;;20.50;99.90;;;;;;7394582;19;20154;-90
2023/09/29 08:35:34;;;;;;;1.08;0.93;;;20.70;99.90;;;;;;7393332;19;20155;-89
2023/09/29 08:38:00;;;;;;;1.60;1.08;;;20.80;99.90;;;;;;7394350;19;20667;-88
2023/09/29 08:40:36;;;;;;;1.80;1.70;;;20.80;99.90;;;;;;7393225;19;20149;-90
2023/09/29 08:43:06;;;;;;;1.90;1.40;;;20.80;99.90;;;;;;7395408;19;20146;-89
2023/09/29 08:45:32;;;;;;;2.33;1.25;;;20.80;99.90;;;;;;7393826;19;20147;-92
2023/09/29 08:48:00;;;;;;;1.25;1.05;;;20.80;99.90;;;;;;7392095;19;20150;-89
2023/09/29 08:50:26;;;;;;;1.13;1.02;;;20.90;99.90;;;;;;7391584;19;20615;-84
2023/09/29 08:52:53;;;;;;;2.22;1.30;;;20.90;99.90;;;;;;7391075;19;20150;-88
2023/09/29 08:55:21;;;;;;;1.70;1.13;;;20.70;99.90;;;;;;7394527;19;20158;-87
2023/09/29 08:57:47;;;;;;;1.63;1.30;;;20.80;99.90;;;;;;7394412;19;20170;-88
2023/09/29 09:00:14;;;;;;;1.85;1.60;;;20.80;99.90;;;;;;7397886;19;20613;-89
2023/09/29 09:02:44;;;;;;;1.65;1.35;;;20.90;99.90;;;;;;7390162;19;20134;-85
2023/09/29 09:05:10;;;;;;;1.20;1.10;;;21.10;99.90;;;;;;7390948;19;20154;-87
2023/09/29 09:07:40;;;;;;;2.00;1.38;;;21.20;99.90;;;;;;7393753;19;20500;-88
2023/09/29 09:10:06;;;;;;;2.40;1.30;;;21.40;99.90;;;;;;7393872;19;20548;-87
2023/09/29 09:12:44;;;;;;;2.38;1.88;;;21.60;99.90;;;;;;7395593;19;20154;-86
2023/09/29 09:15:14;;;;;;;1.27;0.90;;;21.80;99.90;;;;;;7396278;19;20171;-91
2023/09/29 09:17:39;;;;;;;1.92;0.98;;;22.00;99.90;;;;;;7390835;19;20134;-89
2023/09/29 09:20:06;;;;;;;1.75;1.52;;;22.10;99.90;;;;;;7394182;19;20500;-88
2023/09/29 09:22:33;;;;;;;1.88;1.45;;;22.30;99.90;;;;;;7401908;19;20142;-88
2023/09/29 09:24:59;;;;;;;1.45;1.33;;;22.50;99.90;;;;;;7403077;19;20154;-89
2023/09/29 09:27:26;;;;;;;2.42;1.30;;;22.60;99.90;;;;;;7401960;19;20166;-91
2023/09/29 09:29:53;;;;;;;1.23;1.10;;;22.80;99.90;;;;;;7404575;19;20134;-89
2023/09/29 09:32:28;;;;;;;2.83;1.38;;;23.10;99.90;;;;;;7397461;19;20154;-87
2023/09/29 09:34:54;;;;;;;3.20;1.45;;;23.30;99.90;;;;;;7401839;19;20138;-92
2023/09/29 09:37:28;;;;;;;1.95;1.58;;;23.50;99.90;;;;;;7408633;19;20147;-94
2023/09/29 09:40:00;;;;;;;1.55;1.20;;;23.60;99.90;;;;;;7403102;19;20584;-89
2023/09/29 09:42:27;;;;;;;2.20;1.48;;;23.60;99.90;;;;;;7403672;19;20159;-91
2023/09/29 09:44:59;;;;;;;1.58;1.20;;;23.70;99.90;;;;;;7405274;19;20146;-91
2023/09/29 09:47:26;;;;;;;1.85;1.17;;;23.80;99.90;;;;;;7401445;19;20170;-90
2023/09/29 09:50:01;;;;;;;1.65;1.30;;;23.90;99.90;;;;;;7405111;19;20157;-87
2023/09/29 09:52:30;;;;;;;1.55;0.90;;;24.20;99.90;;;;;;7401508;19;20146;-88
2023/09/29 09:54:58;;;;;;;1.17;0.80;;;24.40;99.90;;;;;;7398654;19;20580;-87
2023/09/29 09:57:34;;;;;;;0.73;0.73;;;24.40;99.90;;;;;;7403264;19;20226;-93
2023/09/29 10:00:10;;;;;;;1.05;0.95;;;24.60;99.90;;;;;;7399295;19;20139;-88
2023/09/29 10:02:51;;;;;;;0.93;0.80;;;24.70;99.90;;;;;;7396559;19;20149;-87
2023/09/29 10:05:22;;;;;;;1.05;0.95;;;24.70;99.90;;;;;;7399735;19;20220;-89
2023/09/29 10:07:55;;;;;;;0.82;0.63;;;24.80;99.90;;;;;;7399416;19;20195;-89
2023/09/29 10:10:41;;;;;;;1.30;0.98;;;24.90;99.90;;;;;;7400235;19;20476;-88
2023/09/29 10:13:15;;;;;;;0.95;0.90;;;25.00;99.90;;;;;;7397719;19;20515;-87
2023/09/29 10:15:41;;;;;;;1.33;1.02;;;25.10;99.90;;;;;;7403017;19;20150;-85
2023/09/29 10:18:19;;;;;;;1.50;1.20;;;25.20;99.90;;;;;;7397096;19;20280;-86
2023/09/29 10:20:55;;;;;;;1.45;1.17;;;25.40;99.90;;;;;;7396935;19;20141;-88
2023/09/29 10:23:25;;;;;;;5.90;3.72;;;25.50;99.90;;;;;;7399716;19;20158;-92
2023/09/29 10:26:02;;;;;;;1.30;1.10;;;25.50;99.90;;;;;;7401880;19;20584;-91
2023/09/29 10:28:36;;;;;;;2.17;1.92;;;25.60;99.90;;;;;;7400438;19;20611;-89
2023/09/29 10:31:27;;;;;;;1.33;0.85;;;25.70;99.90;;;;;;7403829;19;20154;-91
2023/09/29 10:33:55;;;;;;;1.67;0.90;;;25.70;99.90;;;;;;7397989;19;20258;-89
2023/09/29 10:36:27;;;;;;;1.45;0.93;;;25.70;99.90;;;;;;7400745;19;20639;-91
2023/09/29 10:38:57;;;;;;;1.25;0.85;;;25.70;99.90;;;;;;7399766;19;20161;-94
2023/09/29 10:41:24;;;;;;;0.70;0.70;;;25.70;99.90;;;;;;7399133;19;20617;-89
2023/09/29 10:43:50;;;;;;;1.35;0.88;;;25.90;99.90;;;;;;7398650;19;20218;-90
2023/09/29 10:46:22;;;;;;;1.73;1.15;;;26.10;99.90;;;;;;7399855;19;20158;-91
2023/09/29 10:48:49;;;;;;;0.95;0.75;;;26.30;99.90;;;;;;7403850;19;20218;-88
2023/09/29 10:51:27;;;;;;;1.05;0.80;;;26.30;99.90;;;;;;7396833;19;20147;-88
2023/09/29 10:53:54;;;;;;;1.08;0.80;;;26.30;99.90;;;;;;7405779;19;20146;-93
2023/09/29 10:56:36;;;;;;;0.73;0.70;;;26.40;99.90;;;;;;7405273;19;20158;-91
2023/09/29 10:59:08;;;;;;;1.33;1.00;;;26.40;99.90;;;;;;7404903;19;20159;-88
2023/09/29 11:01:35;;;;;;;0.60;0.60;;;26.60;99.90;;;;;;7398349;19;20157;-90
2023/09/29 11:04:06;;;;;;;0.80;0.70;;;26.60;99.90;;;;;;7399757;19;20198;-88
2023/09/29 11:06:42;;;;;;;1.27;1.08;;;26.60;99.90;;;;;;7396705;19;20639;-89
2023/09/29 11:09:19;;;;;;;1.05;0.93;;;26.80;99.90;;;;;;7403296;19;20160;-90
2023/09/29 11:11:46;;;;;;;1.25;0.95;;;26.90;99.90;;;;;;7402311;19;20918;-88
2023/09/29 11:14:12;;;;;;;1.08;0.90;;;26.80;99.90;;;;;;7399676;19;20150;-86
2023/09/29 11:17:08;;;;;;;1.00;0.90;;;26.90;99.90;;;;;;7397619;19;20146;-87
2023/09/29 11:19:35;;;;;;;1.00;0.90;;;26.90;99.90;;;;;;7398962;19;20154;-84
2023/09/29 11:22:05;;;;;;;1.23;0.98;;;27.00;99.90;;;;;;7396148;19;20138;-86
2023/09/29 11:24:43;;;;;;;2.08;1.67;;;27.00;99.90;;;;;;7394853;19;20441;-85
2023/09/29 11:27:11;;;;;;;1.58;1.10;;;27.10;99.90;;;;;;7396348;19;20165;-87
2023/09/29 11:29:38;;;;;;;1.23;1.13;;;27.10;99.90;;;;;;7396082;19;20151;-88
2023/09/29 11:32:04;;;;;;;0.98;0.90;;;27.10;99.90;;;;;;7396539;19;20150;-88
2023/09/29 11:34:31;;;;;;;1.33;0.80;;;27.10;99.90;;;;;;7396245;19;20163;-84
2023/09/29 11:36:57;;;;;;;1.50;1.00;;;27.20;99.90;;;;;;7395484;19;20154;-83
2023/09/29 11:39:23;;;;;;;4.30;1.27;;;27.10;99.90;;;;;;7394630;19;20167;-86
2023/09/29 11:41:49;;;;;;;1.08;0.90;;;27.20;99.90;;;;;;7396391;19;20595;-84
2023/09/29 11:44:18;;;;;;;0.80;0.80;;;27.30;99.90;;;;;;7394059;19;20205;-85
2023/09/29 11:46:44;;;;;;;0.98;0.73;;;27.30;99.90;;;;;;7393144;19;20210;-86
2023/09/29 11:49:11;;;;;;;1.40;0.85;;;27.40;99.90;;;;;;7396337;19;20939;-87
2023/09/29 11:51:38;;;;;;;1.77;0.80;;;27.40;99.90;;;;;;7398332;19;20269;-84
2023/09/29 11:54:07;;;;;;;1.45;0.90;;;27.50;99.90;;;;;;7394372;19;20142;-88
2023/09/29 11:56:33;;;;;;;0.95;0.90;;;27.40;99.90;;;;;;7395369;19;20157;-86
2023/09/29 11:58:59;;;;;;;1.00;0.90;;;27.30;99.90;;;;;;7394069;19;20154;-85
2023/09/29 12:01:37;;;;;;;0.88;0.82;;;27.30;99.90;;;;;;7399850;19;20143;-87
2023/09/29 12:04:29;;;;;;;1.52;0.80;;;27.20;99.90;;;;;;7398254;19;20543;-87
2023/09/29 12:06:55;;;;;;;2.00;0.90;;;27.30;99.90;;;;;;7386206;19;20135;-87
2023/09/29 12:09:22;;;;;;;2.08;0.82;;;27.30;99.90;;;;;;7394876;19;20150;-85
2023/09/29 12:11:48;;;;;;;1.27;0.95;;;27.40;99.90;;;;;;7392106;19;20155;-86
2023/09/29 12:14:14;;;;;;;1.90;1.10;;;27.40;99.90;;;;;;7393919;19;20242;-83
2023/09/29 12:16:39;;;;;;;2.80;1.00;;;27.50;99.90;;;;;;7394274;19;20580;-84
2023/09/29 12:19:07;;;;;;;1.00;0.82;;;27.30;99.90;;;;;;7391406;19;20126;-88
2023/09/29 12:21:33;;;;;;;0.80;0.80;;;27.40;99.90;;;;;;7392765;19;20131;-85
2023/09/29 12:23:59;;;;;;;1.08;0.88;;;27.40;99.90;;;;;;7392282;19;20225;-80
2023/09/29 12:26:24;;;;;;;1.25;1.13;;;27.30;99.90;;;;;;7391817;19;20150;-84
2023/09/29 12:28:50;;;;;;;1.00;0.90;;;27.20;99.90;;;;;;7391550;19;20692;-83
2023/09/29 12:31:16;;;;;;;0.85;0.82;;;27.20;99.90;;;;;;7390179;19;20400;-82
2023/09/29 12:33:44;;;;;;;2.47;0.90;;;27.20;99.90;;;;;;7392672;19;20130;-84
2023/09/29 12:36:10;;;;;;;1.10;0.95;;;27.10;99.90;;;;;;7394700;19;20135;-88
2023/09/29 12:38:36;;;;;;;1.00;0.77;;;26.90;99.90;;;;;;7392506;19;20632;-84
2023/09/29 12:41:02;;;;;;;1.27;0.80;;;26.90;99.90;;;;;;7391840;19;20143;-82
2023/09/29 12:43:28;;;;;;;0.93;0.82;;;26.90;99.90;;;;;;7390921;19;20150;-83
2023/09/29 12:45:55;;;;;;;1.15;0.90;;;27.00;99.90;;;;;;7388202;19;20138;-87
2023/09/29 12:48:22;;;;;;;1.05;0.80;;;27.00;99.90;;;;;;7395005;19;20150;-87
2023/09/29 12:50:48;;;;;;;0.82;0.80;;;27.00;99.90;;;;;;7392126;19;21120;-93